Pagrindinis puslapis
METAR-TAF:

METAR-TAF

Oro uostai :

Černivciai, Ukraina

platuma: 48-15-36N, ilguma: 025-58-54E, Aukštis: 252 m

Dabartinis oras

Ataskaita buvo paskelbta 2 valandos ir 5 minutes, ne 07:04 UTC
Vėjas 2 kt nuo kintamojo kryptimis
Temperatūra 13°C
Drėgmė 94%
Slėgis 1019 hPa
Matomumas: 4100 m
rūkana

METAR: UKLN 180704Z VRB01MPS 4100 BR NSC 13/12 Q1019 NOSIG

Laikas: 12:09 (09:09 UTC)

Prognozė

Ataskaita buvo paskelbta 3 valandos ir 57 minutes, ne 05:12 UTC
Prognozė galioja nuo 18 metu 06 UTC su 18 metu 15 UTC
Vėjas 2 kt nuo kintamojo kryptimis
Matomumas: 2100 m
Su prošvaistėmis ne aukštis 1000 ft
rūkana
Laikinai
nuo 18 metu 06 UTC su 18 metu 08 UTC
Matomumas: 0400 m
ne aukštis 100 ft
rūkas
Tapsmas
nuo 18 metu 08 UTC su 18 metu 10 UTC
Matomumas 10 km arba daugiau
Išsisklaidę debesys ne aukštis 4000 ft

TAF: UKLN 180512Z 1806/1815 VRB01MPS 2100 BR BKN010 TEMPO 1806/1808 0400 FG VV001 BECMG 1808/1810 9999 NSW SCT040

Orai ataskaitas ir orų prognozės (METAR, TAF).

turimą stotys yra geltonos ir raudonos taškus žemėlapyje.

Perkelti pele per norėdami pamatyti stoties vardą.

Tada spustelėkite, norėdami matyti oro stebėjimo ir prognozės.

Norėdami pakeisti žemėlapį: spustelėkite ant žalios mygtukų su juodo kryžiaus žemyn,; žalią mygtuką su brūkšneliu, jei norite nutolinti; arba žalių rodyklių gretimoms žemėlapius.


METAR-TAF: